MPBO/BOC METAR and TAF weather

Enter ICAO airport designator
Station Type Date Time Source
MPBO METAR 2019/06/25 20:00 UTC NOAA

MPBO 252000Z 02006KT 9999 FEW018TCU SCT090 ///// Q1013


Station Type Date Time Source
MPBO Decoded METAR 2019/06/25 20:00 UTC NOAA

Bocas Del Toro International, Panama (MPBO) 09-21N 082-15W
Jun 25, 2019 - 04:00 PM EDT / 2019.06.25 2000 UTC
Wind: from the NNE (020 degrees) at 7 MPH (6 KT):0
Visibility: greater than 7 mile(s):0
Sky conditions: partly cloudy
Weather: Towering cumulus clouds observed
Pressure (altimeter): 29.91 in. Hg (1013 hPa)
ob: MPBO 252000Z 02006KT 9999 FEW018TCU SCT090 ///// Q1013
cycle: 20

Station Type Date Time Source
MPBO TAF 2011/07/19 06:30 UTC NOAA

TAF TAF MPBO 190500Z 1906/1918 00000KT 9999 FEW020
BECMG 1912/1916 30004KT 9000 SCT018 BKN100
TEMPO 1916/1918 FEW018CB

Example: see airport list